Time;durP1;ratioP1;P1;durP2;ratioP2;P2;SDS_P1;SDS_P2;PMS_P1;PMS_P2;Temp;Humidity;BMP_temperature;BMP_pressure;BME280_temperature;BME280_humidity;BME280_pressure;Samples;Min_cycle;Max_cycle;Signal;HPM_P1;HPM_P2
2022/01/03 00:00:33;;;;;;;6.83;2.73;;;9.70;99.90;;;;;;5053929;28;20518;-56
2022/01/03 00:03:02;;;;;;;4.20;2.80;;;9.50;99.90;;;;;;5043005;28;20489;-54
2022/01/03 00:05:29;;;;;;;4.80;3.40;;;9.40;99.90;;;;;;5043592;28;20473;-56
2022/01/03 00:07:57;;;;;;;5.10;2.60;;;9.40;89.50;;;;;;5055789;28;20445;-56
2022/01/03 00:10:24;;;;;;;3.03;2.60;;;9.20;84.50;;;;;;5050987;28;20454;-55
2022/01/03 00:12:51;;;;;;;5.13;2.80;;;9.20;49.30;;;;;;5056107;28;20574;-56
2022/01/03 00:15:20;;;;;;;4.47;2.90;;;9.10;36.10;;;;;;5059227;28;20492;-54
2022/01/03 00:17:48;;;;;;;9.67;3.50;;;9.10;75.50;;;;;;5050855;28;20553;-56
2022/01/03 00:20:16;;;;;;;5.93;3.03;;;9.10;99.90;;;;;;5064084;28;20813;-54
2022/01/03 00:22:49;;;;;;;6.23;2.90;;;9.00;99.90;;;;;;5055635;28;20552;-55
2022/01/03 00:25:17;;;;;;;5.50;3.30;;;9.00;99.90;;;;;;5060194;28;20480;-55
2022/01/03 00:27:49;;;;;;;8.20;3.70;;;9.00;99.90;;;;;;5059148;28;20549;-55
2022/01/03 00:30:19;;;;;;;4.70;3.13;;;8.90;99.90;;;;;;5058665;28;20468;-55
2022/01/03 00:32:49;;;;;;;5.83;3.20;;;8.90;99.90;;;;;;5051630;28;20549;-55
2022/01/03 00:35:17;;;;;;;6.17;3.40;;;8.90;99.90;;;;;;5054865;28;20490;-56
2022/01/03 00:37:45;;;;;;;5.00;3.20;;;8.90;99.90;;;;;;5059131;28;20540;-56
2022/01/03 00:40:12;;;;;;;5.07;3.43;;;9.00;99.90;;;;;;5057148;28;20548;-56
2022/01/03 00:42:40;;;;;;;8.20;3.43;;;9.00;99.90;;;;;;5053000;28;20520;-54
2022/01/03 00:45:07;;;;;;;3.97;3.57;;;9.00;99.90;;;;;;5053455;28;20888;-55
2022/01/03 00:47:34;;;;;;;11.13;3.80;;;8.90;99.90;;;;;;5059811;28;20557;-55
2022/01/03 00:50:06;;;;;;;7.90;4.37;;;8.90;99.90;;;;;;5063256;28;20544;-55
2022/01/03 00:52:33;;;;;;;5.43;3.40;;;8.90;99.90;;;;;;5053984;28;20591;-55
2022/01/03 00:54:59;;;;;;;7.97;3.20;;;8.90;99.90;;;;;;5063268;28;20470;-54
2022/01/03 00:57:39;;;;;;;4.80;2.70;;;8.90;99.90;;;;;;5049560;28;20516;-56
2022/01/03 01:00:09;;;;;;;2.73;2.33;;;8.80;99.90;;;;;;5059956;28;20528;-55
2022/01/03 01:02:37;;;;;;;4.93;2.90;;;8.80;99.90;;;;;;5052987;28;21012;-55
2022/01/03 01:05:07;;;;;;;4.97;3.80;;;8.80;99.90;;;;;;5062646;28;20543;-54
2022/01/03 01:07:34;;;;;;;5.53;2.87;;;8.80;99.90;;;;;;5056044;28;20546;-54
2022/01/03 01:10:03;;;;;;;6.93;3.30;;;8.80;99.90;;;;;;5056822;28;20540;-56
2022/01/03 01:12:31;;;;;;;5.80;3.10;;;8.80;99.90;;;;;;5061397;28;20505;-56
2022/01/03 01:14:59;;;;;;;9.07;3.50;;;8.80;99.90;;;;;;5061985;28;20461;-56
2022/01/03 01:17:27;;;;;;;4.90;2.67;;;8.80;99.90;;;;;;5053330;28;20975;-55
2022/01/03 01:19:55;;;;;;;3.50;2.90;;;8.80;99.90;;;;;;5048018;28;20446;-55
2022/01/03 01:22:23;;;;;;;7.23;3.60;;;8.80;99.90;;;;;;5054044;28;20495;-56
2022/01/03 01:25:10;;;;;;;3.37;3.07;;;8.70;99.90;;;;;;5064850;28;20548;-55
2022/01/03 01:27:48;;;;;;;7.53;3.37;;;8.70;99.90;;;;;;5060127;28;20773;-56
2022/01/03 01:30:16;;;;;;;4.50;3.27;;;8.80;99.90;;;;;;5042984;28;20458;-56
2022/01/03 01:32:44;;;;;;;5.67;2.80;;;8.70;99.90;;;;;;5046340;28;20504;-56
2022/01/03 01:35:11;;;;;;;13.00;3.43;;;8.70;99.90;;;;;;5065104;28;20497;-56
2022/01/03 01:37:40;;;;;;;2.60;2.40;;;8.70;99.90;;;;;;5054092;28;20453;-56
2022/01/03 01:40:08;;;;;;;4.97;3.20;;;8.70;99.90;;;;;;5051837;28;20914;-57
2022/01/03 01:42:37;;;;;;;3.40;2.50;;;8.70;99.90;;;;;;5042546;28;20604;-56
2022/01/03 01:45:08;;;;;;;4.17;3.27;;;8.80;99.90;;;;;;5058649;28;20486;-56
2022/01/03 01:47:38;;;;;;;7.23;2.83;;;8.70;99.90;;;;;;5041184;28;20453;-56
2022/01/03 01:50:07;;;;;;;2.73;2.53;;;8.70;99.90;;;;;;5054538;28;20494;-55
2022/01/03 01:52:36;;;;;;;4.27;2.67;;;8.70;99.90;;;;;;5061868;28;20500;-55
2022/01/03 01:55:07;;;;;;;2.53;2.33;;;8.70;99.90;;;;;;5058991;28;20470;-55
2022/01/03 01:57:47;;;;;;;6.23;2.77;;;8.80;99.90;;;;;;5052964;28;20472;-55
2022/01/03 02:00:16;;;;;;;3.70;3.10;;;8.70;99.90;;;;;;5044369;28;20544;-56
2022/01/03 02:02:47;;;;;;;2.20;2.10;;;8.80;99.90;;;;;;5043265;28;20566;-55
2022/01/03 02:05:25;;;;;;;2.60;2.00;;;8.70;99.90;;;;;;5049637;28;20537;-55
2022/01/03 02:08:03;;;;;;;3.00;2.30;;;8.70;99.90;;;;;;5056428;28;20544;-55
2022/01/03 02:10:38;;;;;;;4.67;2.60;;;8.70;99.90;;;;;;5048455;28;20947;-55
2022/01/03 02:13:06;;;;;;;4.10;1.87;;;8.60;99.90;;;;;;5063632;28;20472;-54
2022/01/03 02:15:34;;;;;;;2.20;2.00;;;8.60;99.90;;;;;;5054020;28;20553;-56
2022/01/03 02:18:01;;;;;;;1.77;1.43;;;8.60;99.90;;;;;;5057032;28;20510;-55
2022/01/03 02:20:30;;;;;;;3.30;1.90;;;8.60;99.90;;;;;;5062537;28;20952;-55
2022/01/03 02:22:57;;;;;;;1.67;1.57;;;8.60;99.90;;;;;;5057089;28;20522;-56
2022/01/03 02:25:25;;;;;;;2.40;1.70;;;8.60;99.90;;;;;;5062900;28;20446;-55
2022/01/03 02:27:54;;;;;;;3.50;1.77;;;8.50;99.90;;;;;;5062459;28;20849;-55
2022/01/03 02:30:23;;;;;;;8.30;1.50;;;8.60;99.90;;;;;;5057033;28;20502;-56
2022/01/03 02:32:50;;;;;;;1.47;1.40;;;8.50;99.90;;;;;;5060027;28;20867;-55
2022/01/03 02:35:18;;;;;;;2.07;1.53;;;8.50;99.90;;;;;;5049982;28;20586;-54
2022/01/03 02:37:47;;;;;;;2.13;1.27;;;8.50;99.90;;;;;;5063002;28;20484;-56
2022/01/03 02:40:15;;;;;;;1.60;1.47;;;8.50;99.90;;;;;;5048603;28;21019;-54
2022/01/03 02:42:43;;;;;;;1.30;1.20;;;8.50;99.90;;;;;;5054667;28;20493;-55
2022/01/03 02:45:14;;;;;;;5.70;1.27;;;8.50;99.90;;;;;;5048480;28;20557;-55
2022/01/03 02:47:44;;;;;;;5.07;1.50;;;8.40;99.90;;;;;;5048527;28;20489;-56
2022/01/03 02:50:11;;;;;;;1.20;1.10;;;8.50;99.90;;;;;;5063491;28;21278;-56
2022/01/03 02:52:38;;;;;;;3.00;1.03;;;8.50;99.90;;;;;;5046924;28;20606;-56
2022/01/03 02:55:09;;;;;;;1.73;1.20;;;8.50;99.90;;;;;;5047740;28;20553;-56
2022/01/03 02:57:37;;;;;;;1.30;1.13;;;8.40;99.90;;;;;;5052851;28;20979;-55
2022/01/03 03:00:08;;;;;;;1.20;1.10;;;8.50;99.90;;;;;;5049977;28;20453;-55
2022/01/03 03:02:34;;;;;;;1.00;1.00;;;8.50;99.90;;;;;;5054557;28;20488;-56
2022/01/03 03:05:04;;;;;;;1.23;0.90;;;8.50;99.90;;;;;;5047381;28;20496;-55
2022/01/03 03:07:31;;;;;;;1.17;1.10;;;8.40;99.90;;;;;;5049317;28;20558;-54
2022/01/03 03:09:59;;;;;;;1.33;1.03;;;8.50;99.90;;;;;;5044412;28;20787;-56
2022/01/03 03:12:28;;;;;;;15.73;1.37;;;8.40;99.90;;;;;;5042030;28;21067;-56
2022/01/03 03:14:54;;;;;;;1.37;1.20;;;8.40;99.90;;;;;;5038740;28;20573;-57
2022/01/03 03:17:21;;;;;;;1.50;1.40;;;8.40;99.90;;;;;;5037891;28;21016;-55
2022/01/03 03:19:52;;;;;;;1.43;1.23;;;8.40;99.90;;;;;;5042362;28;21022;-54
2022/01/03 03:22:19;;;;;;;2.50;0.97;;;8.40;99.90;;;;;;5042480;28;20577;-56
2022/01/03 03:24:46;;;;;;;1.30;1.20;;;8.40;99.90;;;;;;5044477;28;20551;-55
2022/01/03 03:27:12;;;;;;;1.10;0.80;;;8.40;99.90;;;;;;5046372;28;20500;-57
2022/01/03 03:29:48;;;;;;;1.83;1.00;;;8.30;99.90;;;;;;5042259;28;20490;-55
2022/01/03 03:32:14;;;;;;;2.10;1.20;;;8.40;99.90;;;;;;5039840;28;20605;-56
2022/01/03 03:34:42;;;;;;;3.90;1.10;;;8.40;99.90;;;;;;5046917;28;20460;-56
2022/01/03 03:37:09;;;;;;;3.63;1.53;;;8.30;99.90;;;;;;5056478;28;20537;-56
2022/01/03 03:39:36;;;;;;;1.23;1.10;;;8.30;99.90;;;;;;5049909;28;20465;-55
2022/01/03 03:42:04;;;;;;;1.20;1.10;;;8.30;99.90;;;;;;5049807;28;20855;-55
2022/01/03 03:44:30;;;;;;;1.50;1.17;;;8.30;99.90;;;;;;5064114;28;20497;-56
2022/01/03 03:46:58;;;;;;;2.40;1.50;;;8.40;99.90;;;;;;5057209;28;20495;-56
2022/01/03 03:49:25;;;;;;;2.40;0.90;;;8.30;99.90;;;;;;5049097;28;20483;-56
2022/01/03 03:51:51;;;;;;;2.87;1.00;;;8.30;99.90;;;;;;5061065;28;20558;-56
2022/01/03 03:54:18;;;;;;;3.00;1.17;;;8.40;99.90;;;;;;5054906;28;20581;-56
2022/01/03 03:56:45;;;;;;;1.90;1.17;;;8.40;99.90;;;;;;5059386;28;20489;-55
2022/01/03 03:59:12;;;;;;;1.10;0.80;;;8.30;99.90;;;;;;5054287;28;21008;-57
2022/01/03 04:01:38;;;;;;;3.50;1.13;;;8.40;99.90;;;;;;5048431;28;20519;-55
2022/01/03 04:04:06;;;;;;;1.47;1.10;;;8.30;99.90;;;;;;5056796;28;20999;-50
2022/01/03 04:06:33;;;;;;;2.30;1.10;;;8.30;99.90;;;;;;5059169;28;21733;-50
2022/01/03 04:09:00;;;;;;;2.07;1.20;;;8.30;99.90;;;;;;5049967;28;20466;-50
2022/01/03 04:11:26;;;;;;;4.07;1.10;;;8.30;99.90;;;;;;5060044;28;20513;-49
2022/01/03 04:13:53;;;;;;;1.53;1.10;;;8.30;99.90;;;;;;5052770;28;20473;-50
2022/01/03 04:16:20;;;;;;;1.80;1.00;;;8.30;99.90;;;;;;5044980;28;21019;-49
2022/01/03 04:18:46;;;;;;;2.83;0.90;;;8.20;99.90;;;;;;5054267;28;20457;-49
2022/01/03 04:21:14;;;;;;;0.70;0.70;;;8.30;99.90;;;;;;5053053;28;20978;-50
2022/01/03 04:23:41;;;;;;;3.20;0.87;;;8.30;99.90;;;;;;5043347;28;20576;-48
2022/01/03 04:26:08;;;;;;;0.70;0.70;;;8.30;99.90;;;;;;5058333;28;20492;-48
2022/01/03 04:28:34;;;;;;;0.87;0.70;;;8.20;99.90;;;;;;5048397;28;20544;-50
2022/01/03 04:31:01;;;;;;;0.60;0.50;;;8.20;74.80;;;;;;5046854;28;20545;-50
2022/01/03 04:33:27;;;;;;;1.00;0.73;;;8.20;20.40;;;;;;5061179;28;20530;-48
2022/01/03 04:35:54;;;;;;;1.43;0.80;;;8.10;21.30;;;;;;5038416;28;20500;-49
2022/01/03 04:38:22;;;;;;;0.97;0.70;;;8.10;30.60;;;;;;5051447;28;20901;-49
2022/01/03 04:40:48;;;;;;;1.57;0.63;;;8.00;51.30;;;;;;5048997;28;20507;-49
2022/01/03 04:43:15;;;;;;;0.50;0.40;;;8.00;44.50;;;;;;5055042;28;21058;-49
2022/01/03 04:45:41;;;;;;;1.13;0.60;;;8.00;61.70;;;;;;5046381;28;20545;-49
2022/01/03 04:48:08;;;;;;;1.10;0.57;;;8.00;69.10;;;;;;5063472;28;20540;-49
2022/01/03 04:50:35;;;;;;;0.80;0.60;;;7.90;78.40;;;;;;5062009;28;20541;-49
2022/01/03 04:53:01;;;;;;;0.60;0.50;;;8.00;83.60;;;;;;5049752;28;20497;-49
2022/01/03 04:55:29;;;;;;;0.70;0.50;;;8.00;99.90;;;;;;5050460;28;20486;-49
2022/01/03 04:57:55;;;;;;;0.80;0.60;;;8.00;99.90;;;;;;5056132;28;20486;-49
2022/01/03 05:00:22;;;;;;;1.17;0.60;;;8.00;99.90;;;;;;5057769;28;20548;-49
2022/01/03 05:02:49;;;;;;;1.20;0.70;;;8.00;99.90;;;;;;5047878;28;20904;-49
2022/01/03 05:05:15;;;;;;;0.70;0.70;;;8.00;99.90;;;;;;5047949;28;20544;-50
2022/01/03 05:07:42;;;;;;;1.40;0.60;;;7.90;99.90;;;;;;5061893;28;20481;-47
2022/01/03 05:10:09;;;;;;;1.03;0.60;;;7.90;99.90;;;;;;5060037;28;20538;-46
2022/01/03 05:12:37;;;;;;;0.50;0.40;;;7.90;99.90;;;;;;5045472;28;21101;-48
2022/01/03 05:15:04;;;;;;;1.10;0.50;;;7.90;99.90;;;;;;5052104;28;20535;-49
2022/01/03 05:17:31;;;;;;;0.50;0.50;;;8.00;99.90;;;;;;5048714;28;20513;-48
2022/01/03 05:19:58;;;;;;;0.77;0.40;;;7.90;99.90;;;;;;5049223;28;20503;-49
2022/01/03 05:22:25;;;;;;;0.90;0.50;;;7.80;99.90;;;;;;5044349;28;20582;-50
2022/01/03 05:24:51;;;;;;;1.97;0.50;;;7.80;36.30;;;;;;5046611;28;20553;-50
2022/01/03 05:27:18;;;;;;;0.60;0.40;;;7.80;31.80;;;;;;5056984;28;20511;-50
2022/01/03 05:29:46;;;;;;;0.57;0.50;;;7.80;99.90;;;;;;5041429;28;20466;-49
2022/01/03 05:32:12;;;;;;;0.60;0.40;;;7.80;31.10;;;;;;5033557;28;20478;-50
2022/01/03 05:34:39;;;;;;;0.60;0.60;;;7.70;99.90;;;;;;5044412;28;20544;-49
2022/01/03 05:37:06;;;;;;;0.60;0.40;;;7.70;99.90;;;;;;5038461;28;21050;-49
2022/01/03 05:39:32;;;;;;;0.50;0.30;;;7.60;99.90;;;;;;5041417;28;21255;-48
2022/01/03 05:41:59;;;;;;;0.80;0.40;;;7.60;99.90;;;;;;5042486;28;20582;-49
2022/01/03 05:44:26;;;;;;;0.80;0.50;;;7.50;99.90;;;;;;5041724;28;20556;-49
2022/01/03 05:46:53;;;;;;;0.60;0.50;;;7.40;99.90;;;;;;5043585;28;20458;-49
2022/01/03 05:49:20;;;;;;;0.73;0.47;;;7.40;97.00;;;;;;5037789;28;20521;-48
2022/01/03 05:51:46;;;;;;;0.60;0.50;;;7.50;92.60;;;;;;5051576;28;20484;-49
2022/01/03 05:54:13;;;;;;;2.40;0.53;;;7.40;73.40;;;;;;5042586;28;20493;-49
2022/01/03 05:56:40;;;;;;;0.67;0.40;;;7.40;62.60;;;;;;5044317;28;21050;-48
2022/01/03 05:59:07;;;;;;;0.60;0.40;;;7.40;52.20;;;;;;5045432;28;20545;-49
2022/01/03 06:01:34;;;;;;;0.97;0.50;;;7.40;42.30;;;;;;5046285;28;20970;-49
2022/01/03 06:04:13;;;;;;;2.60;0.60;;;7.40;76.60;;;;;;5048886;28;20486;-49
2022/01/03 06:06:56;;;;;;;1.00;0.67;;;7.30;99.90;;;;;;5042971;28;20908;-49
2022/01/03 06:09:24;;;;;;;0.93;0.60;;;7.40;99.90;;;;;;5047439;28;20450;-50
2022/01/03 06:11:51;;;;;;;0.70;0.50;;;7.30;99.90;;;;;;5040469;28;20496;-49
2022/01/03 06:14:19;;;;;;;0.97;0.77;;;7.30;99.90;;;;;;5034592;28;20799;-50
2022/01/03 06:16:47;;;;;;;0.97;0.53;;;7.30;99.90;;;;;;5040319;28;20504;-49
2022/01/03 06:19:15;;;;;;;0.60;0.57;;;7.30;99.90;;;;;;5040675;28;20530;-49
2022/01/03 06:21:42;;;;;;;1.00;0.60;;;7.40;99.90;;;;;;5041077;28;20485;-49
2022/01/03 06:24:09;;;;;;;0.60;0.50;;;7.40;99.90;;;;;;5047154;28;20578;-49
2022/01/03 06:26:37;;;;;;;1.17;0.70;;;7.40;99.90;;;;;;5039332;28;20504;-49
2022/01/03 06:29:04;;;;;;;0.90;0.67;;;7.40;99.90;;;;;;5048988;28;20580;-49
2022/01/03 06:31:30;;;;;;;2.70;0.77;;;7.40;99.90;;;;;;5056294;28;20511;-49
2022/01/03 06:33:57;;;;;;;3.40;0.93;;;7.40;99.90;;;;;;5061867;28;20461;-49
2022/01/03 06:36:25;;;;;;;1.53;0.90;;;7.40;99.90;;;;;;5056022;28;20485;-49
2022/01/03 06:38:52;;;;;;;3.70;1.27;;;7.50;99.90;;;;;;5033066;28;20535;-49
2022/01/03 06:41:18;;;;;;;2.00;1.17;;;7.60;99.90;;;;;;5046026;28;20473;-49
2022/01/03 06:43:45;;;;;;;1.70;1.40;;;7.60;99.90;;;;;;5061318;28;20512;-48
2022/01/03 06:46:12;;;;;;;2.10;1.30;;;7.60;99.90;;;;;;5055538;28;20485;-48
2022/01/03 06:48:38;;;;;;;3.63;1.23;;;7.60;99.90;;;;;;5041643;28;20943;-50
2022/01/03 06:51:05;;;;;;;3.10;1.30;;;7.60;99.90;;;;;;5043103;28;20556;-48
2022/01/03 06:53:33;;;;;;;5.30;1.60;;;7.60;99.90;;;;;;5050902;28;21014;-48
2022/01/03 06:56:00;;;;;;;4.33;1.23;;;7.60;99.90;;;;;;5052153;28;20489;-49
2022/01/03 06:58:26;;;;;;;3.13;1.57;;;7.70;99.90;;;;;;5041850;28;20501;-48
2022/01/03 07:00:53;;;;;;;1.60;1.40;;;7.70;99.90;;;;;;5044015;28;20548;-49
2022/01/03 07:03:19;;;;;;;3.07;1.40;;;7.70;99.90;;;;;;5042782;28;20580;-48
2022/01/03 07:05:46;;;;;;;2.60;1.30;;;7.70;99.90;;;;;;5035227;28;20487;-48
2022/01/03 07:08:12;;;;;;;2.10;1.30;;;7.80;99.90;;;;;;5033648;28;20497;-48
2022/01/03 07:10:40;;;;;;;3.83;1.80;;;7.80;99.90;;;;;;5043279;28;20602;-48
2022/01/03 07:13:07;;;;;;;5.10;1.77;;;7.80;99.90;;;;;;5036619;28;21019;-50
2022/01/03 07:21:02;;;;;;;6.87;2.17;;;7.80;99.90;;;;;;5045881;28;20453;-49
2022/01/03 07:23:28;;;;;;;6.53;1.80;;;7.80;99.90;;;;;;5044775;28;20526;-49
2022/01/03 07:25:56;;;;;;;7.80;1.80;;;7.80;99.90;;;;;;5043341;28;20923;-49
2022/01/03 07:28:23;;;;;;;3.90;1.97;;;7.70;99.90;;;;;;5042929;28;20501;-49
2022/01/03 07:30:49;;;;;;;6.33;2.10;;;7.80;99.90;;;;;;5043012;28;20549;-50
2022/01/03 07:33:16;;;;;;;4.93;2.07;;;7.80;99.90;;;;;;5042984;28;20577;-47
2022/01/03 07:35:43;;;;;;;4.40;1.77;;;7.80;99.90;;;;;;5049575;28;20549;-49
2022/01/03 07:38:09;;;;;;;5.47;2.17;;;7.80;99.90;;;;;;5047286;28;20505;-49
2022/01/03 07:40:36;;;;;;;6.85;1.67;;;7.80;99.90;;;;;;5048166;28;20447;-48
2022/01/03 07:43:04;;;;;;;6.83;2.20;;;7.80;99.90;;;;;;5040606;28;20661;-48
2022/01/03 07:45:30;;;;;;;5.50;1.70;;;7.90;99.90;;;;;;5048057;28;20492;-48
2022/01/03 07:47:57;;;;;;;2.90;1.93;;;7.80;99.90;;;;;;5050105;28;20505;-49
2022/01/03 07:50:24;;;;;;;4.50;1.93;;;7.80;99.90;;;;;;5055485;28;20580;-48
2022/01/03 07:52:50;;;;;;;5.27;2.23;;;7.80;99.90;;;;;;5049220;28;20539;-48
2022/01/03 07:55:17;;;;;;;6.77;2.03;;;7.90;99.90;;;;;;5049380;28;20880;-48
2022/01/03 07:57:44;;;;;;;9.87;2.90;;;7.90;99.90;;;;;;5042409;28;20461;-48
2022/01/03 08:00:16;;;;;;;5.57;2.17;;;7.90;99.90;;;;;;5045191;28;20974;-49
2022/01/03 08:02:43;;;;;;;5.63;1.80;;;7.90;99.90;;;;;;5034760;28;20518;-47
2022/01/03 08:05:13;;;;;;;7.20;2.43;;;8.00;99.90;;;;;;5038113;28;20549;-48
2022/01/03 08:07:39;;;;;;;8.10;1.97;;;7.90;89.50;;;;;;5056888;28;20458;-49
2022/01/03 08:10:08;;;;;;;8.73;2.27;;;8.00;22.00;;;;;;5034945;28;20497;-47
2022/01/03 08:12:37;;;;;;;4.77;2.13;;;8.00;26.90;;;;;;5045357;28;20585;-47
2022/01/03 08:15:04;;;;;;;7.73;2.67;;;8.00;25.50;;;;;;5049263;28;20465;-49
2022/01/03 08:17:33;;;;;;;6.07;1.93;;;8.00;24.00;;;;;;5042027;28;20552;-48
2022/01/03 08:19:59;;;;;;;6.70;1.77;;;8.00;27.60;;;;;;5049382;28;20485;-49
2022/01/03 08:22:26;;;;;;;5.73;4.37;;;8.00;32.80;;;;;;5043487;28;20582;-47
2022/01/03 08:24:53;;;;;;;8.20;2.03;;;8.00;36.40;;;;;;5043636;28;20582;-47
2022/01/03 08:27:19;;;;;;;10.27;1.60;;;8.00;36.30;;;;;;5037976;28;20497;-48
2022/01/03 08:29:46;;;;;;;7.20;2.10;;;8.10;42.00;;;;;;5036709;28;20558;-49
2022/01/03 08:32:12;;;;;;;15.00;2.50;;;8.10;38.50;;;;;;5042256;28;20576;-48
2022/01/03 08:34:40;;;;;;;9.43;2.90;;;8.10;37.10;;;;;;5045513;28;20592;-48
2022/01/03 08:37:07;;;;;;;4.33;2.20;;;8.10;43.70;;;;;;5053349;28;20485;-47
2022/01/03 08:39:34;;;;;;;8.50;2.20;;;8.10;42.20;;;;;;5043842;28;20504;-48
2022/01/03 08:42:00;;;;;;;10.13;2.33;;;8.10;43.30;;;;;;5045644;28;20544;-47
2022/01/03 08:44:27;;;;;;;10.30;4.00;;;8.20;45.60;;;;;;5048181;28;20564;-47
2022/01/03 08:46:53;;;;;;;5.13;2.07;;;8.20;54.00;;;;;;5044437;28;20557;-49
2022/01/03 08:49:20;;;;;;;11.10;2.30;;;8.20;65.40;;;;;;5044666;28;20492;-48
2022/01/03 08:51:48;;;;;;;7.07;3.63;;;8.30;67.80;;;;;;5042352;28;20544;-49
2022/01/03 08:54:14;;;;;;;5.77;2.20;;;8.50;71.20;;;;;;5053239;28;20544;-48
2022/01/03 08:56:41;;;;;;;8.63;2.10;;;8.70;93.00;;;;;;5047094;28;20461;-47
2022/01/03 08:59:08;;;;;;;7.60;1.80;;;8.70;99.90;;;;;;5045600;28;20936;-48
2022/01/03 09:01:34;;;;;;;9.00;2.20;;;8.60;99.90;;;;;;5045145;28;20556;-47
2022/01/03 09:04:01;;;;;;;4.30;2.03;;;8.60;99.90;;;;;;5040833;28;20585;-48
2022/01/03 09:06:28;;;;;;;4.50;2.07;;;8.60;99.90;;;;;;5048077;28;20489;-47
2022/01/03 09:08:56;;;;;;;6.90;2.63;;;8.70;99.90;;;;;;5043125;28;20462;-48
2022/01/03 09:11:23;;;;;;;9.97;2.47;;;8.80;99.90;;;;;;5044711;28;20904;-49
2022/01/03 09:13:49;;;;;;;15.03;3.20;;;8.90;99.90;;;;;;5055382;28;21287;-48
2022/01/03 09:16:16;;;;;;;7.07;2.50;;;8.80;99.90;;;;;;5048736;28;20994;-48
2022/01/03 09:18:43;;;;;;;16.53;5.07;;;9.00;99.90;;;;;;5053830;28;20970;-47
2022/01/03 09:21:10;;;;;;;10.40;2.57;;;9.20;99.90;;;;;;5038995;28;20508;-48
2022/01/03 09:23:41;;;;;;;9.37;2.87;;;9.00;23.60;;;;;;5053838;28;20480;-48
2022/01/03 09:28:53;;;;;;;12.63;3.07;;;8.90;29.40;;;;;;5044422;28;20567;-48
2022/01/03 09:31:24;;;;;;;9.33;2.70;;;8.90;25.30;;;;;;5049262;28;20489;-48
2022/01/03 09:33:51;;;;;;;8.57;2.97;;;8.80;99.90;;;;;;5056253;28;20560;-47
2022/01/03 09:36:18;;;;;;;8.63;2.73;;;8.70;99.90;;;;;;5056895;28;20867;-47
2022/01/03 09:38:45;;;;;;;5.07;2.10;;;8.60;99.90;;;;;;5039727;28;20497;-48
2022/01/03 09:41:17;;;;;;;9.93;2.50;;;8.50;99.90;;;;;;5043871;28;20520;-48
2022/01/03 09:43:49;;;;;;;13.30;3.93;;;8.50;1.40;;;;;;5039138;28;20580;-48
2022/01/03 09:46:20;;;;;;;13.53;2.80;;;8.50;99.90;;;;;;5046383;28;20470;-49
2022/01/03 09:48:52;;;;;;;20.23;3.20;;;8.50;99.90;;;;;;5046241;28;20557;-48
2022/01/03 09:51:19;;;;;;;11.93;2.73;;;8.50;99.90;;;;;;5051861;28;20468;-48
2022/01/03 09:53:47;;;;;;;13.83;3.33;;;8.60;99.90;;;;;;5045477;28;20609;-46
2022/01/03 09:56:15;;;;;;;20.17;3.90;;;8.60;99.90;;;;;;5042010;28;20966;-47
2022/01/03 09:58:42;;;;;;;17.40;3.00;;;8.50;99.90;;;;;;5041544;28;21014;-47
2022/01/03 10:01:10;;;;;;;8.93;2.80;;;8.50;99.90;;;;;;5048362;28;20544;-48
2022/01/03 10:03:37;;;;;;;10.87;2.93;;;8.60;99.90;;;;;;5042149;28;20580;-56
2022/01/03 10:06:03;;;;;;;16.63;3.27;;;8.60;99.90;;;;;;5045409;28;20596;-56
2022/01/03 10:08:30;;;;;;;9.07;2.80;;;8.70;99.90;;;;;;5041704;28;20494;-56
2022/01/03 10:10:57;;;;;;;10.10;2.53;;;8.70;99.90;;;;;;5036946;28;20469;-56
2022/01/03 10:13:25;;;;;;;12.97;3.33;;;8.80;99.90;;;;;;5042517;28;20525;-55
2022/01/03 10:15:51;;;;;;;10.67;3.73;;;8.90;99.90;;;;;;5038624;28;20995;-56
2022/01/03 10:18:20;;;;;;;10.30;3.20;;;8.90;99.90;;;;;;5055824;28;20549;-56
2022/01/03 10:20:47;;;;;;;12.80;3.30;;;8.90;99.90;;;;;;5044977;28;20469;-56
2022/01/03 10:23:16;;;;;;;16.33;3.90;;;8.90;99.90;;;;;;5042825;28;20509;-56
2022/01/03 10:25:45;;;;;;;12.10;3.00;;;9.10;26.00;;;;;;5052577;28;20590;-56
2022/01/03 10:28:21;;;;;;;14.07;4.00;;;9.60;91.00;;;;;;5057538;28;20461;-55
2022/01/03 10:30:49;;;;;;;11.17;2.90;;;10.00;99.90;;;;;;5036363;28;20550;-55
2022/01/03 10:33:18;;;;;;;14.47;5.83;;;9.80;99.90;;;;;;5040266;28;20999;-55
2022/01/03 10:35:46;;;;;;;10.07;2.87;;;9.70;99.90;;;;;;5044999;28;20545;-56
2022/01/03 10:38:31;;;;;;;11.57;3.07;;;9.60;99.90;;;;;;5046321;28;20524;-56
2022/01/03 10:41:09;;;;;;;15.63;4.00;;;9.60;99.90;;;;;;5045890;28;20485;-56
2022/01/03 10:43:36;;;;;;;10.93;3.10;;;9.60;99.90;;;;;;5046816;28;20521;-54
2022/01/03 10:46:17;;;;;;;12.60;2.93;;;9.70;99.90;;;;;;5041886;28;20987;-54
2022/01/03 10:48:43;;;;;;;11.10;4.33;;;9.60;99.90;;;;;;5056073;28;21100;-56
2022/01/03 10:51:10;;;;;;;15.33;3.70;;;10.00;99.90;;;;;;5043384;28;20903;-55
2022/01/03 10:53:38;;;;;;;11.90;4.13;;;9.90;99.90;;;;;;5048097;28;20937;-56
2022/01/03 10:56:35;;;;;;;12.93;3.03;;;9.70;99.90;;;;;;5042253;28;20538;-56
2022/01/03 10:59:20;;;;;;;13.50;3.43;;;9.60;99.90;;;;;;5043519;28;20457;-54
2022/01/03 11:01:50;;;;;;;15.37;3.53;;;9.60;99.90;;;;;;5045775;28;20465;-56
2022/01/03 11:04:31;;;;;;;19.00;5.00;;;9.50;99.90;;;;;;5043511;28;20996;-54
2022/01/03 11:13:14;;;;;;;12.20;3.80;;;9.50;99.90;;;;;;5049432;28;20516;-56
2022/01/03 11:15:43;;;;;;;11.93;3.80;;;9.50;99.90;;;;;;5034222;28;20463;-55
2022/01/03 11:18:16;;;;;;;11.80;3.23;;;9.50;99.90;;;;;;5045580;28;20466;-56
2022/01/03 11:20:45;;;;;;;23.30;4.70;;;9.50;99.90;;;;;;5051043;28;20545;-54
2022/01/03 11:23:19;;;;;;;20.23;3.97;;;9.40;99.90;;;;;;5041751;28;20572;-55
2022/01/03 11:25:46;;;;;;;23.60;4.03;;;9.40;81.00;;;;;;5043331;28;20556;-56
2022/01/03 11:28:13;;;;;;;14.00;3.97;;;9.20;55.80;;;;;;5046904;28;20466;-55
2022/01/03 11:30:40;;;;;;;13.17;3.40;;;9.00;39.80;;;;;;5050075;28;20577;-56
2022/01/03 11:33:10;;;;;;;7.97;3.20;;;8.90;99.90;;;;;;5053681;28;20535;-54
2022/01/03 11:35:45;;;;;;;12.57;4.50;;;8.70;99.90;;;;;;5048084;28;20568;-57
2022/01/03 11:38:12;;;;;;;18.60;4.87;;;8.60;99.90;;;;;;5037029;28;20553;-56
2022/01/03 11:40:39;;;;;;;18.03;3.80;;;8.50;99.90;;;;;;5042703;28;20516;-55
2022/01/03 11:43:07;;;;;;;15.93;3.83;;;8.50;99.90;;;;;;5054433;28;20572;-54
2022/01/03 11:45:34;;;;;;;15.13;3.97;;;8.40;98.60;;;;;;5044857;28;20521;-54
2022/01/03 11:48:01;;;;;;;18.33;4.17;;;8.50;61.40;;;;;;5044666;28;20485;-55
2022/01/03 11:50:28;;;;;;;20.53;4.50;;;8.40;55.70;;;;;;5044222;28;20558;-54
2022/01/03 11:52:56;;;;;;;17.40;4.30;;;8.30;28.20;;;;;;5042929;28;20558;-56
2022/01/03 11:55:24;;;;;;;12.53;4.97;;;8.40;83.40;;;;;;5043502;28;20496;-55
2022/01/03 11:58:24;;;;;;;15.77;3.47;;;8.30;99.90;;;;;;5044483;28;20966;-55
2022/01/03 12:03:50;;;;;;;9.53;3.10;;;8.30;99.90;;;;;;5029994;28;20621;-56
2022/01/03 12:06:26;;;;;;;8.13;3.47;;;8.30;99.90;;;;;;5044832;28;20472;-56
2022/01/03 12:08:57;;;;;;;11.27;3.37;;;8.40;99.90;;;;;;5045291;28;20493;-57
2022/01/03 12:11:26;;;;;;;8.90;3.03;;;8.50;99.90;;;;;;5038067;28;20498;-56
2022/01/03 12:13:54;;;;;;;8.73;3.33;;;8.50;78.00;;;;;;5043645;28;20566;-56
2022/01/03 12:16:40;;;;;;;10.17;3.40;;;8.50;21.20;;;;;;5036232;28;20545;-55
2022/01/03 12:19:10;;;;;;;13.77;4.00;;;8.50;21.50;;;;;;5040416;28;20565;-55
2022/01/03 12:21:54;;;;;;;13.27;3.43;;;8.60;27.10;;;;;;5043195;28;20458;-55
2022/01/03 12:24:50;;;;;;;19.80;4.20;;;8.70;40.60;;;;;;5039123;28;21007;-56
2022/01/03 12:27:31;;;;;;;14.50;4.33;;;8.70;61.40;;;;;;5028872;28;20461;-55
2022/01/03 12:30:16;;;;;;;16.97;5.27;;;8.90;91.20;;;;;;5041116;28;20540;-54
2022/01/03 12:32:46;;;;;;;11.73;4.10;;;9.00;99.90;;;;;;5040245;28;20491;-56
2022/01/03 12:35:20;;;;;;;13.10;3.70;;;9.20;99.90;;;;;;5039647;28;20486;-56
2022/01/03 12:38:08;;;;;;;19.97;4.80;;;9.30;99.90;;;;;;5039267;28;20555;-55
2022/01/03 12:40:38;;;;;;;15.67;4.90;;;9.20;99.90;;;;;;5046070;28;20511;-55
2022/01/03 12:43:07;;;;;;;13.07;3.50;;;9.20;99.90;;;;;;5039345;28;20521;-55
2022/01/03 12:45:55;;;;;;;24.93;4.63;;;9.20;99.90;;;;;;5057431;28;20571;-56
2022/01/03 12:48:24;;;;;;;17.63;4.40;;;9.30;99.90;;;;;;5044749;28;20459;-56
2022/01/03 12:51:14;;;;;;;12.87;3.80;;;9.40;41.00;;;;;;5051536;28;20460;-56
2022/01/03 12:53:44;;;;;;;13.77;4.03;;;9.30;41.80;;;;;;5044751;28;20549;-56
2022/01/03 12:56:13;;;;;;;11.13;4.43;;;9.20;60.10;;;;;;5046685;28;20489;-54
2022/01/03 12:58:42;;;;;;;18.60;4.13;;;9.20;45.30;;;;;;5044117;28;20547;-55
2022/01/03 13:01:23;;;;;;;17.60;4.40;;;9.10;37.30;;;;;;5043450;28;20904;-56
2022/01/03 13:03:51;;;;;;;13.97;4.20;;;9.10;58.30;;;;;;5046667;28;20492;-54
2022/01/03 13:06:20;;;;;;;14.90;4.10;;;9.10;56.80;;;;;;5056139;28;20509;-55
2022/01/03 13:09:05;;;;;;;13.40;3.80;;;9.00;42.80;;;;;;5049010;28;20458;-56
2022/01/03 13:11:35;;;;;;;13.83;3.50;;;9.00;49.40;;;;;;5054170;28;20486;-54
2022/01/03 13:14:05;;;;;;;14.43;4.40;;;9.00;54.10;;;;;;5041990;28;20534;-56
2022/01/03 13:16:33;;;;;;;18.33;3.80;;;9.00;73.30;;;;;;5044797;28;20469;-56
2022/01/03 13:19:01;;;;;;;16.77;3.97;;;9.00;77.20;;;;;;5053862;28;20526;-56
2022/01/03 13:21:36;;;;;;;15.87;4.00;;;9.00;67.30;;;;;;5047093;28;20544;-56